Time;durP1;ratioP1;P1;durP2;ratioP2;P2;SDS_P1;SDS_P2;PMS_P1;PMS_P2;Temp;Humidity;BMP_temperature;BMP_pressure;BME280_temperature;BME280_humidity;BME280_pressure;Samples;Min_cycle;Max_cycle;Signal;HPM_P1;HPM_P2
2022/04/04 00:00:12;;;;;;;7.35;7.05;;;;;;;0.79;96.50;100773.03;5031501;28;20396;-66
2022/04/04 00:02:38;;;;;;;8.40;7.90;;;;;;;0.75;96.63;100774.19;5031797;28;20029;-66
2022/04/04 00:05:04;;;;;;;7.50;7.10;;;;;;;0.73;96.55;100789.09;5022835;28;20109;-65
2022/04/04 00:07:30;;;;;;;7.60;7.20;;;;;;;0.69;96.84;100783.28;5010645;28;20026;-66
2022/04/04 00:09:55;;;;;;;7.50;7.10;;;;;;;0.71;96.44;100785.78;5021388;28;20029;-65
2022/04/04 00:12:21;;;;;;;7.22;6.93;;;;;;;0.68;96.87;100791.22;5026032;28;20108;-66
2022/04/04 00:14:48;;;;;;;7.97;7.57;;;;;;;0.70;96.51;100795.38;5055124;28;20429;-65
2022/04/04 00:17:14;;;;;;;7.50;7.10;;;;;;;0.63;96.54;100781.09;5054078;28;20067;-65
2022/04/04 00:19:39;;;;;;;7.25;6.95;;;;;;;0.65;96.27;100800.06;5053346;28;20024;-65
2022/04/04 00:22:05;;;;;;;7.22;6.88;;;;;;;0.65;96.20;100800.06;5034748;28;20025;-65
2022/04/04 00:24:32;;;;;;;6.97;6.68;;;;;;;0.69;95.76;100809.38;5027749;28;20064;-65
2022/04/04 00:26:57;;;;;;;7.28;6.95;;;;;;;0.64;95.98;100805.41;5035131;28;20053;-65
2022/04/04 00:29:24;;;;;;;7.18;6.88;;;;;;;0.63;96.13;100809.78;5033912;28;20468;-66
2022/04/04 00:31:50;;;;;;;7.03;6.72;;;;;;;0.62;95.95;100807.31;5034950;28;20025;-66
2022/04/04 00:34:16;;;;;;;7.20;6.90;;;;;;;0.59;96.61;100808.34;5044470;28;20488;-65
2022/04/04 00:36:43;;;;;;;6.90;6.60;;;;;;;0.60;95.77;100809.19;5036861;28;20032;-65
2022/04/04 00:39:10;;;;;;;7.03;6.72;;;;;;;0.61;96.11;100814.28;5018741;28;20036;-66
2022/04/04 00:41:36;;;;;;;7.10;6.80;;;;;;;0.53;96.02;100796.53;5015474;28;20657;-65
2022/04/04 00:44:02;;;;;;;7.00;6.70;;;;;;;0.55;95.61;100806.88;5033084;28;20048;-67
2022/04/04 00:46:27;;;;;;;7.03;6.72;;;;;;;0.53;95.42;100806.16;5036896;28;20503;-67
2022/04/04 00:48:53;;;;;;;7.50;7.10;;;;;;;0.50;95.50;100816.78;5034762;28;20076;-66
2022/04/04 00:51:19;;;;;;;7.22;6.93;;;;;;;0.48;96.08;100818.66;5017796;28;20099;-65
2022/04/04 00:53:44;;;;;;;7.20;6.90;;;;;;;0.43;95.72;100825.97;5035742;28;20095;-66
2022/04/04 00:56:11;;;;;;;7.13;6.82;;;;;;;0.50;95.96;100816.78;5019358;28;20026;-66
2022/04/04 00:58:38;;;;;;;7.65;7.25;;;;;;;0.44;95.99;100818.06;5014863;28;20041;-66
2022/04/04 01:01:05;;;;;;;7.47;7.07;;;;;;;0.47;95.68;100824.81;5015655;28;20034;-66
2022/04/04 01:03:30;;;;;;;7.05;6.75;;;;;;;0.48;96.07;100824.72;5015297;28;20096;-65
2022/04/04 01:05:58;;;;;;;7.80;7.40;;;;;;;0.46;95.28;100831.00;5020988;28;20021;-67
2022/04/04 01:08:24;;;;;;;7.30;6.97;;;;;;;0.46;95.22;100828.38;5034512;28;20029;-66
2022/04/04 01:10:49;;;;;;;8.25;7.78;;;;;;;0.47;95.45;100830.88;5043734;28;20519;-65
2022/04/04 01:13:15;;;;;;;7.15;6.85;;;;;;;0.47;95.36;100836.09;5041987;28;20033;-66
2022/04/04 01:15:40;;;;;;;7.32;7.03;;;;;;;0.45;94.68;100832.75;5054262;28;20033;-66
2022/04/04 01:18:07;;;;;;;8.07;7.68;;;;;;;0.45;94.98;100839.75;5047887;28;20112;-66
2022/04/04 01:20:34;;;;;;;7.72;7.32;;;;;;;0.43;94.40;100850.28;5034051;28;20104;-66
2022/04/04 01:23:00;;;;;;;7.10;6.80;;;;;;;0.32;96.28;100844.94;5034113;28;20389;-66
2022/04/04 01:25:31;;;;;;;7.35;7.05;;;;;;;0.31;96.45;100852.88;5034250;28;20029;-66
2022/04/04 01:27:58;;;;;;;7.47;7.13;;;;;;;0.26;95.40;100853.19;5029050;28;20022;-66
2022/04/04 01:30:25;;;;;;;7.38;7.07;;;;;;;0.22;96.13;100862.13;5034211;28;20025;-66
2022/04/04 01:32:52;;;;;;;7.00;6.70;;;;;;;0.17;96.21;100857.22;5022799;28;20354;-66
2022/04/04 01:35:18;;;;;;;7.32;7.03;;;;;;;0.08;96.02;100846.56;5030061;28;20084;-66
2022/04/04 01:37:44;;;;;;;7.07;6.78;;;;;;;0.07;96.02;100850.91;5032705;28;20036;-65
2022/04/04 01:40:10;;;;;;;7.13;6.82;;;;;;;0.07;97.15;100860.50;5033880;28;20033;-65
2022/04/04 01:42:37;;;;;;;7.45;7.05;;;;;;;0.03;97.19;100859.06;5033797;28;20385;-66
2022/04/04 01:45:07;;;;;;;7.13;6.82;;;;;;;0.05;96.51;100863.22;5050615;28;20029;-66
2022/04/04 01:47:32;;;;;;;7.65;7.25;;;;;;;0.02;95.92;100867.81;5021025;28;20084;-65
2022/04/04 01:49:58;;;;;;;7.13;6.82;;;;;;;0.03;96.71;100872.09;5033644;28;20501;-66
2022/04/04 01:52:24;;;;;;;7.05;6.75;;;;;;;0.00;95.93;100870.53;5033805;28;20021;-67
2022/04/04 01:54:49;;;;;;;7.07;6.78;;;;;;;-0.03;95.46;100865.50;5036779;28;20021;-66
2022/04/04 01:57:15;;;;;;;7.35;7.00;;;;;;;-0.07;94.35;100858.81;5053268;28;20505;-66
2022/04/04 01:59:41;;;;;;;6.80;6.50;;;;;;;-0.05;94.60;100865.59;5046006;28;20075;-64
2022/04/04 02:02:06;;;;;;;6.97;6.68;;;;;;;-0.03;94.86;100866.34;5033207;28;20031;-65
2022/04/04 02:04:32;;;;;;;7.40;7.07;;;;;;;0.06;94.24;100871.88;5033266;28;20104;-66
2022/04/04 02:06:57;;;;;;;7.20;6.88;;;;;;;0.03;93.95;100872.09;5033199;28;20018;-67
2022/04/04 02:09:23;;;;;;;6.97;6.68;;;;;;;0.01;94.32;100874.81;5033504;28;20385;-65
2022/04/04 02:11:49;;;;;;;7.13;6.82;;;;;;;-0.03;94.51;100868.09;5032209;28;20083;-66
2022/04/04 02:14:15;;;;;;;7.28;6.88;;;;;;;0.07;94.93;100877.00;5039562;28;20481;-66
2022/04/04 02:16:42;;;;;;;6.95;6.65;;;;;;;0.11;93.39;100891.53;5022326;28;20061;-65
2022/04/04 02:19:09;;;;;;;6.97;6.68;;;;;;;0.13;93.35;100889.66;5033842;28;20030;-66
2022/04/04 02:21:35;;;;;;;7.40;7.00;;;;;;;0.14;93.04;100893.09;5033014;28;20033;-66
2022/04/04 02:24:01;;;;;;;6.60;6.30;;;;;;;0.14;92.99;100883.50;5033206;28;20104;-65
2022/04/04 02:26:27;;;;;;;7.47;7.07;;;;;;;0.17;92.19;100877.25;5032851;28;20498;-65
2022/04/04 02:28:52;;;;;;;8.18;7.72;;;;;;;0.18;92.77;100887.59;5023062;28;20101;-65
2022/04/04 02:31:18;;;;;;;6.95;6.65;;;;;;;0.18;92.59;100876.31;5027298;28;20071;-66
2022/04/04 02:33:44;;;;;;;7.15;6.80;;;;;;;0.21;92.58;100896.97;5020548;28;20117;-65
2022/04/04 02:36:10;;;;;;;6.90;6.60;;;;;;;0.16;92.84;100889.47;5032761;28;20032;-66
2022/04/04 02:38:35;;;;;;;7.13;6.78;;;;;;;0.25;93.11;100893.25;5033986;28;20033;-66
2022/04/04 02:41:01;;;;;;;6.88;6.57;;;;;;;0.27;92.82;100899.19;5033164;28;20124;-65
2022/04/04 02:43:27;;;;;;;7.40;7.00;;;;;;;0.25;91.32;100898.47;5035817;28;20024;-66
2022/04/04 02:45:52;;;;;;;7.25;6.90;;;;;;;0.27;90.12;100902.66;5034088;28;20047;-66
2022/04/04 02:48:18;;;;;;;6.80;6.50;;;;;;;0.31;90.42;100905.06;5031801;28;20029;-66
2022/04/04 02:50:45;;;;;;;7.10;6.80;;;;;;;0.27;89.28;100896.59;5012966;28;20056;-65
2022/04/04 02:53:11;;;;;;;7.00;6.70;;;;;;;0.22;90.25;100889.09;5033128;28;20026;-66
2022/04/04 02:58:21;;;;;;;6.82;6.53;;;;;;;0.26;90.29;100903.59;5046057;28;20049;-66
2022/04/04 03:00:47;;;;;;;6.78;6.47;;;;;;;0.26;90.18;100900.97;5031336;28;20037;-66
2022/04/04 03:03:12;;;;;;;7.00;6.70;;;;;;;0.26;90.27;100914.03;5031836;28;20021;-66
2022/04/04 03:05:39;;;;;;;7.20;6.90;;;;;;;0.32;90.51;100907.56;5028090;28;20029;-65
2022/04/04 03:08:05;;;;;;;7.03;6.72;;;;;;;0.25;90.37;100914.13;5014579;28;20045;-66
2022/04/04 03:10:35;;;;;;;6.90;6.60;;;;;;;0.22;90.58;100919.53;5031640;28;20083;-67
2022/04/04 03:13:02;;;;;;;7.10;6.80;;;;;;;0.25;89.40;100914.97;5040154;28;20124;-66
2022/04/04 03:15:28;;;;;;;7.50;7.10;;;;;;;0.20;87.59;100918.78;5031033;28;20179;-66
2022/04/04 03:17:55;;;;;;;7.00;6.70;;;;;;;0.20;87.93;100913.56;5031453;28;20029;-66
2022/04/04 03:20:23;;;;;;;6.97;6.68;;;;;;;0.17;87.38;100919.00;5030298;28;20021;-66
2022/04/04 03:22:51;;;;;;;7.05;6.75;;;;;;;0.21;87.20;100917.84;5036814;28;20017;-65
2022/04/04 03:25:17;;;;;;;8.00;7.57;;;;;;;0.21;87.66;100921.28;5025342;28;20029;-66
2022/04/04 03:27:44;;;;;;;6.90;6.60;;;;;;;0.16;88.18;100912.13;5032891;28;20021;-67
2022/04/04 03:30:12;;;;;;;7.45;7.05;;;;;;;0.19;87.38;100919.72;5031342;28;20048;-66
2022/04/04 03:32:38;;;;;;;7.75;7.35;;;;;;;0.11;86.57;100922.00;5034556;28;20037;-66
2022/04/04 03:35:04;;;;;;;8.48;7.97;;;;;;;0.09;86.05;100929.09;5035800;28;20025;-67
2022/04/04 03:37:31;;;;;;;7.70;7.30;;;;;;;0.05;86.31;100933.66;5049435;28;20036;-66
2022/04/04 03:39:57;;;;;;;7.88;7.47;;;;;;;-0.01;86.05;100921.00;5033377;28;20021;-66
2022/04/04 03:42:24;;;;;;;8.55;8.05;;;;;;;-0.04;86.11;100926.41;5036144;28;20044;-66
2022/04/04 03:44:50;;;;;;;7.95;7.55;;;;;;;-0.03;86.36;100922.88;5036445;28;20481;-66
2022/04/04 03:47:16;;;;;;;7.40;7.00;;;;;;;-0.05;85.97;100933.41;5050615;28;20029;-65
2022/04/04 03:49:41;;;;;;;7.65;7.25;;;;;;;0.03;84.97;100937.31;5039359;28;20168;-66
2022/04/04 03:52:07;;;;;;;7.57;7.18;;;;;;;0.22;83.84;100936.03;5030149;28;20029;-67
2022/04/04 03:54:34;;;;;;;7.60;7.20;;;;;;;0.43;84.25;100951.22;5031891;28;20025;-65
2022/04/04 03:56:59;;;;;;;7.90;7.47;;;;;;;0.58;82.20;100949.41;4978804;28;1498248;-67
2022/04/04 03:59:25;;;;;;;8.82;8.30;;;;;;;1.04;81.38;100947.22;5021636;28;20034;-65
2022/04/04 04:01:51;;;;;;;7.53;7.13;;;;;;;1.32;82.32;100944.41;5042234;28;20039;-65
2022/04/04 04:04:17;;;;;;;6.82;6.53;;;;;;;1.20;79.43;100934.78;5037379;28;20029;-67
2022/04/04 04:06:45;;;;;;;7.60;7.20;;;;;;;1.68;78.10;100948.00;5049325;28;20028;-66
2022/04/04 04:09:11;;;;;;;7.40;7.00;;;;;;;2.62;79.44;100958.66;5035133;28;20065;-77
2022/04/04 04:11:37;;;;;;;6.80;6.50;;;;;;;2.62;77.33;100963.06;5030014;28;20529;-68
2022/04/04 04:14:03;;;;;;;8.38;7.90;;;;;;;3.19;72.99;100957.06;5043714;28;20032;-68
2022/04/04 04:16:28;;;;;;;8.77;8.27;;;;;;;3.63;72.58;100961.50;5039565;28;20392;-67
2022/04/04 04:18:54;;;;;;;7.30;6.90;;;;;;;3.21;71.07;100971.69;5032351;28;20041;-67
2022/04/04 04:21:20;;;;;;;8.05;7.65;;;;;;;3.26;72.72;100972.19;5046629;28;20178;-67
2022/04/04 04:23:46;;;;;;;8.60;8.10;;;;;;;2.72;72.12;100972.78;5042369;28;20036;-67
2022/04/04 04:26:15;;;;;;;10.48;9.77;;;;;;;3.94;69.74;100978.31;5026101;28;20028;-68
2022/04/04 04:28:45;;;;;;;7.78;7.38;;;;;;;6.20;64.45;100975.19;5037919;28;20021;-65
2022/04/04 04:31:12;;;;;;;7.38;6.97;;;;;;;7.58;57.53;100987.19;5040780;28;20056;-66
2022/04/04 04:33:37;;;;;;;6.75;6.45;;;;;;;8.54;53.63;100982.41;5039326;28;20495;-65
2022/04/04 04:36:03;;;;;;;7.82;7.43;;;;;;;9.55;49.57;100996.13;5041254;28;20033;-65
2022/04/04 04:38:30;;;;;;;8.18;7.78;;;;;;;8.65;48.74;100999.84;5047444;28;20032;-65
2022/04/04 04:40:56;;;;;;;7.57;7.18;;;;;;;9.44;44.68;101005.13;5034736;28;20029;-65
2022/04/04 04:43:21;;;;;;;7.95;7.55;;;;;;;10.77;42.26;101004.53;5041192;28;20040;-65
2022/04/04 04:45:47;;;;;;;7.30;7.00;;;;;;;10.79;40.16;101000.69;5014771;28;20028;-65
2022/04/04 04:48:12;;;;;;;8.18;7.78;;;;;;;10.39;41.31;101017.38;5043931;28;20417;-65
2022/04/04 04:50:38;;;;;;;7.85;7.45;;;;;;;9.13;44.09;101013.53;5042551;28;20140;-64
2022/04/04 04:53:04;;;;;;;8.23;7.82;;;;;;;10.38;42.05;101025.50;5046854;28;20531;-66
2022/04/04 04:55:30;;;;;;;7.18;6.88;;;;;;;12.02;37.44;101032.47;5031440;28;20128;-66
2022/04/04 04:57:57;;;;;;;7.20;6.90;;;;;;;10.86;40.05;101027.41;5045876;28;20064;-66
2022/04/04 05:00:27;;;;;;;8.05;7.65;;;;;;;12.53;36.59;101032.91;5036330;28;20607;-64
2022/04/04 05:05:38;;;;;;;7.82;7.45;;;;;;;14.60;32.54;101042.09;5032116;28;20032;-67
2022/04/04 05:08:04;;;;;;;7.53;7.22;;;;;;;15.52;31.42;101033.31;5040579;28;20040;-67
2022/04/04 05:10:30;;;;;;;6.93;6.63;;;;;;;12.14;34.99;101042.56;5041015;28;20017;-65
2022/04/04 05:12:56;;;;;;;7.55;7.25;;;;;;;12.19;35.16;101036.72;5043143;28;21033;-67
2022/04/04 05:15:23;;;;;;;7.45;7.15;;;;;;;9.72;39.55;101053.50;5034514;28;20689;-66
2022/04/04 05:17:49;;;;;;;8.40;8.00;;;;;;;9.46;39.23;101057.94;5028829;28;20040;-70
2022/04/04 05:20:14;;;;;;;7.40;7.10;;;;;;;8.87;41.28;101039.09;5031293;28;20025;-70
2022/04/04 05:22:40;;;;;;;7.15;6.85;;;;;;;8.30;42.29;101056.97;5041371;28;20738;-69
2022/04/04 05:25:06;;;;;;;7.90;7.50;;;;;;;9.06;41.05;101056.63;5029256;28;20088;-69
2022/04/04 05:27:31;;;;;;;7.50;7.20;;;;;;;8.96;40.35;101054.09;5026236;28;20034;-70
2022/04/04 05:29:56;;;;;;;8.25;7.85;;;;;;;9.47;39.78;101065.72;5037214;28;20500;-69
2022/04/04 05:32:22;;;;;;;8.13;7.72;;;;;;;11.13;37.46;101073.25;5027194;28;20041;-70
2022/04/04 05:34:47;;;;;;;7.65;7.30;;;;;;;13.83;31.75;101077.22;5037910;28;20017;-70
2022/04/04 05:37:13;;;;;;;6.97;6.68;;;;;;;15.33;30.39;101085.59;5035091;28;20065;-71
2022/04/04 05:39:39;;;;;;;7.70;7.40;;;;;;;15.84;29.00;101086.22;5035541;28;20125;-71
2022/04/04 05:42:05;;;;;;;7.20;6.90;;;;;;;11.25;35.85;101085.22;5027749;28;20116;-71
2022/04/04 05:44:32;;;;;;;7.22;6.93;;;;;;;9.60;37.77;101092.66;5027831;28;20018;-71
2022/04/04 05:46:59;;;;;;;7.13;6.82;;;;;;;8.69;40.05;101105.22;5030796;28;20029;-70
2022/04/04 05:49:25;;;;;;;8.10;7.70;;;;;;;8.09;42.05;101103.94;5033500;28;20035;-70
2022/04/04 05:51:51;;;;;;;7.82;7.43;;;;;;;7.26;43.82;101095.72;5029985;28;20104;-70
2022/04/04 05:54:17;;;;;;;7.60;7.30;;;;;;;6.84;43.74;101096.00;5043632;28;20048;-70
2022/04/04 05:56:44;;;;;;;7.75;7.43;;;;;;;6.73;45.61;101100.53;5042857;28;20500;-70
2022/04/04 05:59:14;;;;;;;7.97;7.57;;;;;;;5.76;46.69;101103.59;5038067;28;20543;-70
2022/04/04 06:01:40;;;;;;;7.55;7.25;;;;;;;5.70;47.77;101105.91;5031788;28;20036;-70
2022/04/04 06:04:06;;;;;;;7.82;7.43;;;;;;;5.58;48.15;101102.47;5033308;28;20029;-70
2022/04/04 06:06:31;;;;;;;7.45;7.15;;;;;;;5.68;48.06;101107.84;5029122;28;20030;-70
2022/04/04 06:08:57;;;;;;;8.13;7.72;;;;;;;6.48;47.33;101105.34;5028089;28;20112;-70
2022/04/04 06:11:23;;;;;;;7.15;6.85;;;;;;;5.43;48.89;101101.13;5036744;28;20108;-69
2022/04/04 06:13:48;;;;;;;7.65;7.28;;;;;;;5.80;47.61;101110.28;5034332;28;20017;-69
2022/04/04 06:16:14;;;;;;;8.25;7.85;;;;;;;7.36;43.60;101114.22;5029217;28;20036;-70
2022/04/04 06:18:40;;;;;;;7.10;6.80;;;;;;;6.57;45.00;101119.50;5033956;28;20048;-70
2022/04/04 06:21:06;;;;;;;6.90;6.60;;;;;;;6.12;45.82;101122.53;5044845;28;20725;-69
2022/04/04 06:23:33;;;;;;;7.93;7.53;;;;;;;5.85;46.54;101116.94;5030773;28;20064;-64
2022/04/04 06:26:00;;;;;;;7.05;6.75;;;;;;;6.40;46.12;101128.06;5032867;28;20480;-64
2022/04/04 06:28:27;;;;;;;7.80;7.40;;;;;;;6.87;44.03;101116.81;5034743;28;20029;-65
2022/04/04 06:30:54;;;;;;;7.88;7.47;;;;;;;6.62;43.94;101117.31;5029240;28;20055;-64
2022/04/04 06:33:20;;;;;;;7.40;7.05;;;;;;;7.59;42.77;101123.50;5027913;28;20033;-65
2022/04/04 06:35:47;;;;;;;7.05;6.75;;;;;;;8.37;40.04;101118.03;5028456;28;20029;-65
2022/04/04 06:38:14;;;;;;;7.32;6.97;;;;;;;8.62;40.37;101119.19;5038747;28;20033;-64
2022/04/04 06:40:40;;;;;;;7.05;6.75;;;;;;;9.76;37.09;101112.28;5035416;28;20037;-64
2022/04/04 06:43:06;;;;;;;6.90;6.60;;;;;;;8.85;39.06;101107.19;5033785;28;20025;-64
2022/04/04 06:45:31;;;;;;;7.30;7.00;;;;;;;9.70;39.40;101127.00;5044344;28;20527;-64
2022/04/04 06:47:57;;;;;;;7.32;7.03;;;;;;;10.76;36.53;101117.81;5038926;28;20052;-65
2022/04/04 06:50:23;;;;;;;6.93;6.63;;;;;;;9.95;36.77;101125.34;5031158;28;20071;-66
2022/04/04 06:52:49;;;;;;;8.18;7.78;;;;;;;9.53;37.56;101128.69;5026091;28;20044;-71
2022/04/04 06:55:15;;;;;;;7.30;7.00;;;;;;;8.85;38.46;101125.72;5030707;28;20402;-70
2022/04/04 06:57:41;;;;;;;8.07;7.68;;;;;;;9.06;38.45;101131.56;5031541;28;20432;-70
2022/04/04 07:00:08;;;;;;;7.85;7.45;;;;;;;9.69;37.67;101131.47;5033275;28;20496;-70
2022/04/04 07:02:36;;;;;;;6.97;6.68;;;;;;;10.92;35.57;101132.94;5026731;28;20026;-70
2022/04/04 07:05:04;;;;;;;8.32;7.93;;;;;;;13.27;31.58;101132.66;5027700;28;20541;-70
2022/04/04 07:07:31;;;;;;;6.95;6.65;;;;;;;12.63;32.33;101135.50;5024131;28;20033;-70
2022/04/04 07:09:57;;;;;;;7.10;6.80;;;;;;;14.31;30.73;101139.88;5033147;28;20025;-70
2022/04/04 07:12:23;;;;;;;7.10;6.80;;;;;;;13.25;31.46;101135.50;5032964;28;20029;-71
2022/04/04 07:14:49;;;;;;;6.72;6.43;;;;;;;15.52;29.48;101134.91;5030786;28;20026;-70
2022/04/04 07:17:14;;;;;;;7.35;7.05;;;;;;;16.22;27.67;101132.16;5033660;28;20104;-70
2022/04/04 07:19:39;;;;;;;7.28;6.97;;;;;;;16.85;27.32;101142.81;5027799;28;20101;-71
2022/04/04 07:22:05;;;;;;;7.50;7.20;;;;;;;15.55;27.80;101137.19;5033240;28;20041;-71
2022/04/04 07:24:31;;;;;;;7.30;7.00;;;;;;;16.08;27.23;101143.81;5032179;28;20489;-70
2022/04/04 07:26:56;;;;;;;6.97;6.68;;;;;;;13.71;30.68;101139.97;5042238;28;20716;-71
2022/04/04 07:29:22;;;;;;;7.20;6.90;;;;;;;12.96;31.13;101140.66;5031061;28;20543;-71
2022/04/04 07:31:48;;;;;;;7.38;7.07;;;;;;;12.25;32.26;101139.78;5037447;28;20095;-71
2022/04/04 07:34:14;;;;;;;7.82;7.53;;;;;;;11.44;33.25;101139.84;5029875;28;20026;-71
2022/04/04 07:36:40;;;;;;;7.88;7.50;;;;;;;10.69;35.07;101145.97;5031895;28;20029;-71
2022/04/04 07:39:07;;;;;;;7.50;7.20;;;;;;;11.06;34.13;101142.94;5039893;28;20116;-70
2022/04/04 07:41:33;;;;;;;7.53;7.22;;;;;;;10.39;31.82;101143.88;5034865;28;20022;-70
2022/04/04 07:43:59;;;;;;;7.72;7.38;;;;;;;11.58;29.68;101150.63;5033293;28;20029;-70
2022/04/04 07:46:25;;;;;;;7.97;7.57;;;;;;;11.59;28.72;101152.28;5040441;28;20108;-70
2022/04/04 07:48:54;;;;;;;8.25;7.85;;;;;;;11.56;29.11;101149.16;5029970;28;20038;-70
2022/04/04 07:51:21;;;;;;;7.30;7.00;;;;;;;11.49;28.15;101145.50;5034617;28;20025;-71
2022/04/04 07:53:47;;;;;;;7.47;7.18;;;;;;;11.58;28.85;101145.31;5027134;28;20033;-71
2022/04/04 07:56:12;;;;;;;7.45;7.15;;;;;;;13.33;26.68;101150.59;5046424;28;20408;-71
2022/04/04 07:58:38;;;;;;;7.10;6.80;;;;;;;13.84;26.39;101145.53;5051244;28;20036;-70
2022/04/04 08:01:04;;;;;;;7.40;7.10;;;;;;;13.40;26.11;101142.72;5036373;28;20059;-72
2022/04/04 08:03:30;;;;;;;7.85;7.53;;;;;;;12.21;28.09;101142.97;5045195;28;20485;-71
2022/04/04 08:05:55;;;;;;;7.15;6.85;;;;;;;12.98;27.35;101139.47;5040992;28;20025;-71
2022/04/04 08:08:21;;;;;;;7.20;6.90;;;;;;;14.04;26.74;101141.34;5031546;28;20476;-70
2022/04/04 08:10:46;;;;;;;7.03;6.72;;;;;;;15.01;25.40;101143.88;5029237;28;20395;-71
2022/04/04 08:13:12;;;;;;;7.10;6.80;;;;;;;12.84;27.31;101142.03;5043301;28;20104;-71
2022/04/04 08:15:37;;;;;;;6.95;6.65;;;;;;;12.67;26.90;101139.47;5035470;28;20029;-71
2022/04/04 08:18:04;;;;;;;7.28;6.97;;;;;;;14.13;25.74;101138.59;5031580;28;20052;-71
2022/04/04 08:20:29;;;;;;;7.30;7.00;;;;;;;11.60;28.07;101131.84;5048992;28;20056;-70
2022/04/04 08:22:55;;;;;;;7.60;7.30;;;;;;;14.04;25.60;101140.50;5038241;28;20061;-70
2022/04/04 08:25:21;;;;;;;8.00;7.60;;;;;;;14.59;25.10;101142.75;5024166;28;20085;-69
2022/04/04 08:27:46;;;;;;;8.80;8.40;;;;;;;14.20;24.84;101136.84;5033441;28;20032;-69
2022/04/04 08:30:14;;;;;;;7.75;7.43;;;;;;;13.70;25.96;101135.66;5027560;28;20040;-69
2022/04/04 08:32:41;;;;;;;7.18;6.88;;;;;;;12.81;26.88;101132.56;5036795;28;20033;-69
2022/04/04 08:35:09;;;;;;;7.30;7.00;;;;;;;12.90;26.68;101136.84;5042660;28;20037;-69
2022/04/04 08:37:36;;;;;;;7.72;7.38;;;;;;;12.12;26.13;101132.34;5045668;28;20029;-69
2022/04/04 08:40:06;;;;;;;7.90;7.50;;;;;;;13.57;26.45;101136.25;5044290;28;20033;-69
2022/04/04 08:42:31;;;;;;;8.32;7.93;;;;;;;13.37;26.39;101132.44;5035475;28;20028;-70
2022/04/04 08:44:58;;;;;;;7.57;7.28;;;;;;;11.96;27.20;101124.38;5029731;28;20040;-69
2022/04/04 08:47:25;;;;;;;8.20;7.80;;;;;;;11.44;28.24;101119.41;5033717;28;20026;-69
2022/04/04 08:49:52;;;;;;;8.13;7.72;;;;;;;11.89;27.35;101107.44;5025910;28;20033;-69
2022/04/04 08:52:19;;;;;;;8.88;8.45;;;;;;;12.01;28.37;101108.75;5040962;28;20496;-69
2022/04/04 08:54:45;;;;;;;7.40;7.10;;;;;;;12.30;28.26;101091.38;5037412;28;20029;-69
2022/04/04 08:57:10;;;;;;;7.20;6.90;;;;;;;11.53;29.17;101104.28;5032430;28;20041;-69
2022/04/04 08:59:36;;;;;;;9.90;9.40;;;;;;;11.18;29.80;101100.16;5039378;28;20064;-69
2022/04/04 09:02:02;;;;;;;8.07;7.68;;;;;;;11.74;29.17;101098.47;5033959;28;20079;-66
2022/04/04 09:04:29;;;;;;;7.70;7.30;;;;;;;11.27;31.17;101094.69;5030361;28;20034;-66
2022/04/04 09:07:02;;;;;;;7.40;7.10;;;;;;;11.75;29.95;101079.72;5043797;28;20036;-65
2022/04/04 09:09:38;;;;;;;7.10;6.80;;;;;;;11.58;30.82;101088.69;5017864;28;20039;-67
2022/04/04 09:12:07;;;;;;;7.50;7.20;;;;;;;11.99;30.68;101081.53;5026923;28;20025;-66
2022/04/04 09:14:43;;;;;;;7.22;6.93;;;;;;;11.99;31.05;101078.03;5034302;28;20025;-68
2022/04/04 09:17:11;;;;;;;7.38;7.07;;;;;;;12.63;29.82;101079.63;5034308;28;20025;-66
2022/04/04 09:19:38;;;;;;;7.10;6.80;;;;;;;13.07;29.79;101072.81;5035184;28;20045;-70
2022/04/04 09:22:08;;;;;;;7.32;7.03;;;;;;;11.72;30.87;101069.41;5035184;28;20052;-70
2022/04/04 09:24:42;;;;;;;6.82;6.53;;;;;;;13.22;29.47;101068.41;5033746;28;20029;-70
2022/04/04 09:27:21;;;;;;;;;;;;;;;12.33;30.50;101077.72;5035533;28;20025;-70
2022/04/04 09:29:48;;;;;;;7.50;7.20;;;;;;;10.32;32.95;101057.97;5058041;28;20304;-70
2022/04/04 09:32:15;;;;;;;7.18;6.88;;;;;;;9.98;34.83;101066.72;5033696;28;20371;-70
2022/04/04 09:35:04;;;;;;;6.90;6.60;;;;;;;10.47;33.06;101059.84;5032401;28;20474;-69
2022/04/04 09:37:32;;;;;;;7.20;6.90;;;;;;;10.49;32.30;101067.63;5037308;28;20091;-69
2022/04/04 09:40:18;;;;;;;8.00;7.60;;;;;;;10.26;33.07;101066.56;5045689;28;20117;-70
2022/04/04 09:42:51;;;;;;;6.80;6.50;;;;;;;10.59;32.97;101060.41;5033322;28;20021;-70
2022/04/04 09:45:17;;;;;;;8.82;8.32;;;;;;;11.22;32.48;101054.50;5028573;28;20063;-71
2022/04/04 09:47:56;;;;;;;7.13;6.82;;;;;;;10.66;33.61;101057.94;5034277;28;20029;-71
2022/04/04 09:50:37;;;;;;;7.15;6.85;;;;;;;10.07;33.13;101057.84;5028665;28;20033;-70
2022/04/04 09:53:15;;;;;;;7.32;7.03;;;;;;;9.93;34.50;101051.31;5028952;28;20029;-70
2022/04/04 09:55:44;;;;;;;7.28;6.97;;;;;;;10.09;33.79;101047.91;5037656;28;20107;-70
2022/04/04 09:58:13;;;;;;;7.32;7.03;;;;;;;10.02;34.03;101048.69;5034597;28;20115;-70
2022/04/04 10:00:39;;;;;;;7.25;6.95;;;;;;;10.07;33.86;101039.28;5031652;28;20104;-70
2022/04/04 10:03:08;;;;;;;7.60;7.20;;;;;;;10.37;33.69;101045.91;5024873;28;20503;-70
2022/04/04 10:05:36;;;;;;;7.20;6.90;;;;;;;10.28;34.43;101033.59;5038827;28;20036;-71
2022/04/04 10:08:02;;;;;;;7.03;6.72;;;;;;;9.97;34.44;101034.09;5042881;28;20491;-70
2022/04/04 10:10:30;;;;;;;7.28;6.97;;;;;;;9.91;34.18;101033.88;5033320;28;20040;-71
2022/04/04 10:12:57;;;;;;;6.90;6.60;;;;;;;10.38;33.72;101028.16;5031647;28;20052;-70
2022/04/04 10:15:24;;;;;;;7.13;6.82;;;;;;;10.16;33.69;101034.84;5035889;28;20040;-70
2022/04/04 10:17:51;;;;;;;7.47;7.13;;;;;;;10.08;34.00;101032.16;5048971;28;20017;-70
2022/04/04 10:20:17;;;;;;;7.32;7.03;;;;;;;10.06;33.85;101024.38;5036862;28;20060;-70
2022/04/04 10:22:49;;;;;;;7.20;6.90;;;;;;;9.82;35.22;101034.84;5035827;28;20024;-71
2022/04/04 10:25:17;;;;;;;7.10;6.80;;;;;;;9.91;34.73;101021.47;5041902;28;20392;-70
2022/04/04 10:27:47;;;;;;;8.65;8.20;;;;;;;10.20;35.02;101021.09;5038671;28;20061;-70
2022/04/04 10:30:15;;;;;;;7.53;7.15;;;;;;;9.81;34.71;101014.63;5042804;28;20035;-70
2022/04/04 10:32:53;;;;;;;7.03;6.72;;;;;;;9.77;34.92;101013.28;5043188;28;20736;-70
2022/04/04 10:35:21;;;;;;;7.63;7.22;;;;;;;10.07;34.86;101009.31;5050137;28;20037;-70
2022/04/04 10:37:46;;;;;;;7.22;6.93;;;;;;;10.24;34.13;100998.63;5030647;28;20401;-70
2022/04/04 10:40:21;;;;;;;7.72;7.32;;;;;;;9.80;34.71;101012.97;5033545;28;20111;-71
2022/04/04 10:43:01;;;;;;;7.53;7.15;;;;;;;10.31;34.15;101003.28;5038742;28;20037;-71
2022/04/04 10:45:29;;;;;;;7.22;6.93;;;;;;;9.44;35.97;101010.44;5031130;28;20029;-71
2022/04/04 10:48:04;;;;;;;7.65;7.25;;;;;;;9.91;34.97;101002.91;5050995;28;20388;-70
2022/04/04 10:50:32;;;;;;;7.88;7.47;;;;;;;10.45;34.63;101000.00;5036302;28;20037;-69
2022/04/04 10:53:00;;;;;;;7.18;6.88;;;;;;;10.18;34.60;100996.56;5042267;28;20040;-71
2022/04/04 10:55:41;;;;;;;8.40;8.00;;;;;;;9.91;35.16;100994.13;5036885;28;20074;-69
2022/04/04 10:58:15;;;;;;;7.40;7.03;;;;;;;9.77;34.86;100989.44;5037592;28;20054;-70
2022/04/04 11:01:06;;;;;;;8.32;7.93;;;;;;;9.30;36.08;100981.88;5030870;28;20033;-70
2022/04/04 11:03:33;;;;;;;7.88;7.47;;;;;;;10.56;36.63;100978.47;5023431;28;20049;-70
2022/04/04 11:09:12;;;;;;;7.72;7.32;;;;;;;9.80;36.55;100982.00;5037270;28;20467;-70
2022/04/04 11:11:42;;;;;;;7.63;7.22;;;;;;;10.14;35.21;100976.69;5033243;28;20021;-67
2022/04/04 11:14:08;;;;;;;7.40;7.10;;;;;;;10.00;35.45;100972.00;5020227;28;20384;-66
2022/04/04 11:17:08;;;;;;;8.30;7.90;;;;;;;10.10;35.23;100970.03;5036515;28;20441;-66
2022/04/04 11:19:50;;;;;;;7.97;7.57;;;;;;;9.55;36.46;100967.00;5036630;28;20033;-67
2022/04/04 11:22:25;;;;;;;7.25;6.95;;;;;;;9.71;35.26;100959.13;5043662;28;20419;-68
2022/04/04 11:24:55;;;;;;;7.68;7.28;;;;;;;8.79;36.20;100960.47;5040907;28;20025;-68
2022/04/04 11:27:23;;;;;;;7.35;7.05;;;;;;;9.05;36.68;100959.72;5025001;28;20022;-68
2022/04/04 11:29:49;;;;;;;8.30;7.90;;;;;;;9.21;36.48;100951.88;5043250;28;20369;-67
2022/04/04 11:32:24;;;;;;;8.13;7.72;;;;;;;9.16;36.16;100950.66;5034522;28;20090;-69
2022/04/04 11:34:50;;;;;;;;;;;;;;;8.69;38.31;100959.75;5031395;28;20480;-68
2022/04/04 11:37:19;;;;;;;7.35;7.05;;;;;;;8.85;37.27;100951.13;5022897;28;19921;-68
2022/04/04 11:39:47;;;;;;;7.93;7.53;;;;;;;8.61;39.04;100938.50;5024413;28;20028;-68